sensor_id;sensor_type;location;lat;lon;timestamp;P1;durP1;ratioP1;P2;durP2;ratioP2
44438;SDS011;30145;48.874;10.186;2023-03-03T00:00:46;40.57;;;22.70;;
44438;SDS011;30145;48.874;10.186;2023-03-03T00:03:15;40.13;;;23.33;;
44438;SDS011;30145;48.874;10.186;2023-03-03T00:05:45;37.53;;;24.63;;
44438;SDS011;30145;48.874;10.186;2023-03-03T00:08:13;64.37;;;35.60;;
44438;SDS011;30145;48.874;10.186;2023-03-03T00:10:39;42.43;;;25.87;;
44438;SDS011;30145;48.874;10.186;2023-03-03T00:13:19;41.40;;;22.33;;
44438;SDS011;30145;48.874;10.186;2023-03-03T00:15:48;35.03;;;21.70;;
44438;SDS011;30145;48.874;10.186;2023-03-03T00:18:27;35.87;;;22.47;;
44438;SDS011;30145;48.874;10.186;2023-03-03T00:20:57;35.70;;;21.07;;
44438;SDS011;30145;48.874;10.186;2023-03-03T00:23:29;35.20;;;21.30;;
44438;SDS011;30145;48.874;10.186;2023-03-03T00:26:01;30.33;;;20.57;;
44438;SDS011;30145;48.874;10.186;2023-03-03T00:30:59;37.57;;;21.57;;
44438;SDS011;30145;48.874;10.186;2023-03-03T00:33:33;34.23;;;21.07;;
44438;SDS011;30145;48.874;10.186;2023-03-03T00:38:41;34.73;;;22.03;;
44438;SDS011;30145;48.874;10.186;2023-03-03T00:41:30;36.20;;;22.07;;
44438;SDS011;30145;48.874;10.186;2023-03-03T00:43:56;38.60;;;22.27;;
44438;SDS011;30145;48.874;10.186;2023-03-03T00:46:23;36.20;;;21.80;;
44438;SDS011;30145;48.874;10.186;2023-03-03T00:48:50;35.70;;;21.70;;
44438;SDS011;30145;48.874;10.186;2023-03-03T00:53:48;41.20;;;22.90;;
44438;SDS011;30145;48.874;10.186;2023-03-03T00:56:15;39.00;;;23.00;;
44438;SDS011;30145;48.874;10.186;2023-03-03T00:58:42;34.27;;;20.93;;
44438;SDS011;30145;48.874;10.186;2023-03-03T01:01:11;41.73;;;22.50;;
44438;SDS011;30145;48.874;10.186;2023-03-03T01:03:38;39.83;;;21.63;;
44438;SDS011;30145;48.874;10.186;2023-03-03T01:06:05;35.00;;;21.30;;
44438;SDS011;30145;48.874;10.186;2023-03-03T01:08:32;37.70;;;22.60;;
44438;SDS011;30145;48.874;10.186;2023-03-03T01:11:03;42.70;;;22.83;;
44438;SDS011;30145;48.874;10.186;2023-03-03T01:13:33;33.10;;;21.40;;
44438;SDS011;30145;48.874;10.186;2023-03-03T01:16:03;37.00;;;22.03;;
44438;SDS011;30145;48.874;10.186;2023-03-03T01:18:31;34.80;;;22.47;;
44438;SDS011;30145;48.874;10.186;2023-03-03T01:20:58;35.00;;;21.77;;
44438;SDS011;30145;48.874;10.186;2023-03-03T01:23:25;39.83;;;22.70;;
44438;SDS011;30145;48.874;10.186;2023-03-03T01:25:52;44.10;;;25.87;;
44438;SDS011;30145;48.874;10.186;2023-03-03T01:28:19;52.40;;;28.30;;
44438;SDS011;30145;48.874;10.186;2023-03-03T01:30:46;50.53;;;28.97;;
44438;SDS011;30145;48.874;10.186;2023-03-03T01:33:13;47.17;;;27.83;;
44438;SDS011;30145;48.874;10.186;2023-03-03T01:35:44;45.50;;;26.90;;
44438;SDS011;30145;48.874;10.186;2023-03-03T01:38:12;49.10;;;26.17;;
44438;SDS011;30145;48.874;10.186;2023-03-03T01:40:40;38.10;;;24.60;;
44438;SDS011;30145;48.874;10.186;2023-03-03T01:43:07;38.20;;;22.67;;
44438;SDS011;30145;48.874;10.186;2023-03-03T01:50:55;42.80;;;24.37;;
44438;SDS011;30145;48.874;10.186;2023-03-03T01:53:30;43.90;;;25.00;;
44438;SDS011;30145;48.874;10.186;2023-03-03T01:56:04;40.53;;;24.47;;
44438;SDS011;30145;48.874;10.186;2023-03-03T01:58:42;43.17;;;25.60;;
44438;SDS011;30145;48.874;10.186;2023-03-03T02:01:23;46.57;;;26.77;;
44438;SDS011;30145;48.874;10.186;2023-03-03T02:03:52;45.27;;;26.23;;
44438;SDS011;30145;48.874;10.186;2023-03-03T02:06:20;47.00;;;26.63;;
44438;SDS011;30145;48.874;10.186;2023-03-03T02:09:02;41.87;;;25.63;;
44438;SDS011;30145;48.874;10.186;2023-03-03T02:11:33;42.40;;;24.47;;
44438;SDS011;30145;48.874;10.186;2023-03-03T02:14:02;40.20;;;24.40;;
44438;SDS011;30145;48.874;10.186;2023-03-03T02:16:29;40.07;;;23.13;;
44438;SDS011;30145;48.874;10.186;2023-03-03T02:18:57;37.27;;;22.60;;
44438;SDS011;30145;48.874;10.186;2023-03-03T02:21:24;35.40;;;22.97;;
44438;SDS011;30145;48.874;10.186;2023-03-03T02:26:28;39.00;;;23.33;;
44438;SDS011;30145;48.874;10.186;2023-03-03T02:28:56;43.90;;;25.10;;
44438;SDS011;30145;48.874;10.186;2023-03-03T02:31:24;44.83;;;25.57;;
44438;SDS011;30145;48.874;10.186;2023-03-03T02:33:53;43.63;;;25.50;;
44438;SDS011;30145;48.874;10.186;2023-03-03T02:36:22;41.23;;;24.43;;
44438;SDS011;30145;48.874;10.186;2023-03-03T02:41:42;42.47;;;23.77;;
44438;SDS011;30145;48.874;10.186;2023-03-03T02:44:17;41.80;;;24.37;;
44438;SDS011;30145;48.874;10.186;2023-03-03T02:46:46;43.00;;;23.97;;
44438;SDS011;30145;48.874;10.186;2023-03-03T02:49:15;43.03;;;26.27;;
44438;SDS011;30145;48.874;10.186;2023-03-03T02:51:44;42.83;;;24.40;;
44438;SDS011;30145;48.874;10.186;2023-03-03T02:54:12;41.63;;;24.50;;
44438;SDS011;30145;48.874;10.186;2023-03-03T02:56:40;45.33;;;25.53;;
44438;SDS011;30145;48.874;10.186;2023-03-03T02:59:07;40.80;;;26.07;;
44438;SDS011;30145;48.874;10.186;2023-03-03T03:01:34;42.97;;;25.00;;
44438;SDS011;30145;48.874;10.186;2023-03-03T03:06:35;39.90;;;24.37;;
44438;SDS011;30145;48.874;10.186;2023-03-03T03:09:02;50.10;;;26.63;;
44438;SDS011;30145;48.874;10.186;2023-03-03T03:11:30;45.13;;;26.30;;
44438;SDS011;30145;48.874;10.186;2023-03-03T03:13:57;45.57;;;26.07;;
44438;SDS011;30145;48.874;10.186;2023-03-03T03:16:24;46.60;;;27.00;;
44438;SDS011;30145;48.874;10.186;2023-03-03T03:18:51;45.97;;;25.80;;
44438;SDS011;30145;48.874;10.186;2023-03-03T03:21:18;42.90;;;26.47;;
44438;SDS011;30145;48.874;10.186;2023-03-03T03:23:45;42.97;;;26.07;;
44438;SDS011;30145;48.874;10.186;2023-03-03T03:26:12;42.90;;;25.07;;
44438;SDS011;30145;48.874;10.186;2023-03-03T03:28:39;42.80;;;26.10;;
44438;SDS011;30145;48.874;10.186;2023-03-03T03:31:06;42.43;;;25.07;;
44438;SDS011;30145;48.874;10.186;2023-03-03T03:33:34;43.20;;;24.83;;
44438;SDS011;30145;48.874;10.186;2023-03-03T03:36:02;37.77;;;23.83;;
44438;SDS011;30145;48.874;10.186;2023-03-03T03:38:30;41.43;;;23.73;;
44438;SDS011;30145;48.874;10.186;2023-03-03T03:40:58;44.67;;;25.07;;
44438;SDS011;30145;48.874;10.186;2023-03-03T03:43:25;45.50;;;25.80;;
44438;SDS011;30145;48.874;10.186;2023-03-03T03:45:52;40.00;;;23.93;;
44438;SDS011;30145;48.874;10.186;2023-03-03T03:48:19;44.80;;;25.13;;
44438;SDS011;30145;48.874;10.186;2023-03-03T03:50:47;45.53;;;25.87;;
44438;SDS011;30145;48.874;10.186;2023-03-03T03:53:14;45.63;;;27.93;;
44438;SDS011;30145;48.874;10.186;2023-03-03T03:55:42;48.80;;;27.30;;
44438;SDS011;30145;48.874;10.186;2023-03-03T03:58:14;40.47;;;26.33;;
44438;SDS011;30145;48.874;10.186;2023-03-03T04:00:43;44.87;;;26.20;;
44438;SDS011;30145;48.874;10.186;2023-03-03T04:03:11;45.57;;;27.23;;
44438;SDS011;30145;48.874;10.186;2023-03-03T04:05:40;46.10;;;26.43;;
44438;SDS011;30145;48.874;10.186;2023-03-03T04:08:08;48.30;;;28.10;;
44438;SDS011;30145;48.874;10.186;2023-03-03T04:10:35;40.40;;;25.37;;
44438;SDS011;30145;48.874;10.186;2023-03-03T04:13:02;46.17;;;25.80;;
44438;SDS011;30145;48.874;10.186;2023-03-03T04:15:29;45.57;;;26.27;;
44438;SDS011;30145;48.874;10.186;2023-03-03T04:17:56;43.37;;;25.53;;
44438;SDS011;30145;48.874;10.186;2023-03-03T04:20:23;40.67;;;25.07;;
44438;SDS011;30145;48.874;10.186;2023-03-03T04:22:50;46.00;;;27.63;;
44438;SDS011;30145;48.874;10.186;2023-03-03T04:25:17;40.43;;;23.60;;
44438;SDS011;30145;48.874;10.186;2023-03-03T04:27:44;47.67;;;25.73;;
44438;SDS011;30145;48.874;10.186;2023-03-03T04:30:12;39.40;;;23.87;;
44438;SDS011;30145;48.874;10.186;2023-03-03T04:32:40;44.17;;;25.53;;
44438;SDS011;30145;48.874;10.186;2023-03-03T04:35:08;44.60;;;24.70;;
44438;SDS011;30145;48.874;10.186;2023-03-03T04:37:36;46.33;;;25.03;;
44438;SDS011;30145;48.874;10.186;2023-03-03T04:40:05;44.10;;;26.27;;
44438;SDS011;30145;48.874;10.186;2023-03-03T04:42:36;42.77;;;25.00;;
44438;SDS011;30145;48.874;10.186;2023-03-03T04:45:04;46.10;;;25.33;;
44438;SDS011;30145;48.874;10.186;2023-03-03T04:47:31;43.63;;;26.50;;
44438;SDS011;30145;48.874;10.186;2023-03-03T04:49:58;45.00;;;26.73;;
44438;SDS011;30145;48.874;10.186;2023-03-03T04:52:26;52.70;;;27.70;;
44438;SDS011;30145;48.874;10.186;2023-03-03T04:54:53;49.90;;;28.23;;
44438;SDS011;30145;48.874;10.186;2023-03-03T04:57:20;47.20;;;28.03;;
44438;SDS011;30145;48.874;10.186;2023-03-03T04:59:47;46.20;;;26.03;;
44438;SDS011;30145;48.874;10.186;2023-03-03T05:02:14;47.20;;;26.93;;
44438;SDS011;30145;48.874;10.186;2023-03-03T05:04:42;43.67;;;27.43;;
44438;SDS011;30145;48.874;10.186;2023-03-03T05:07:09;44.03;;;26.37;;
44438;SDS011;30145;48.874;10.186;2023-03-03T05:09:36;46.33;;;26.07;;
44438;SDS011;30145;48.874;10.186;2023-03-03T05:12:03;45.87;;;26.43;;
44438;SDS011;30145;48.874;10.186;2023-03-03T05:14:30;49.20;;;27.97;;
44438;SDS011;30145;48.874;10.186;2023-03-03T05:16:57;47.13;;;26.80;;
44438;SDS011;30145;48.874;10.186;2023-03-03T05:19:24;48.90;;;27.60;;
44438;SDS011;30145;48.874;10.186;2023-03-03T05:21:51;51.33;;;27.17;;
44438;SDS011;30145;48.874;10.186;2023-03-03T05:24:18;49.23;;;27.57;;
44438;SDS011;30145;48.874;10.186;2023-03-03T05:26:45;43.63;;;26.87;;
44438;SDS011;30145;48.874;10.186;2023-03-03T05:29:12;52.10;;;27.47;;
44438;SDS011;30145;48.874;10.186;2023-03-03T05:31:39;48.87;;;27.10;;
44438;SDS011;30145;48.874;10.186;2023-03-03T05:34:07;53.60;;;27.93;;
44438;SDS011;30145;48.874;10.186;2023-03-03T05:36:35;49.33;;;28.80;;
44438;SDS011;30145;48.874;10.186;2023-03-03T05:39:02;49.63;;;28.10;;
44438;SDS011;30145;48.874;10.186;2023-03-03T05:41:29;52.67;;;31.00;;
44438;SDS011;30145;48.874;10.186;2023-03-03T05:43:56;51.70;;;28.97;;
44438;SDS011;30145;48.874;10.186;2023-03-03T05:46:23;53.13;;;30.47;;
44438;SDS011;30145;48.874;10.186;2023-03-03T05:48:50;52.37;;;30.33;;
44438;SDS011;30145;48.874;10.186;2023-03-03T05:51:17;58.27;;;32.93;;
44438;SDS011;30145;48.874;10.186;2023-03-03T05:53:44;60.43;;;32.67;;
44438;SDS011;30145;48.874;10.186;2023-03-03T05:56:11;54.90;;;31.43;;
44438;SDS011;30145;48.874;10.186;2023-03-03T05:58:38;54.17;;;30.70;;
44438;SDS011;30145;48.874;10.186;2023-03-03T06:01:05;49.43;;;29.00;;
44438;SDS011;30145;48.874;10.186;2023-03-03T06:03:31;49.23;;;31.83;;
44438;SDS011;30145;48.874;10.186;2023-03-03T06:05:58;46.27;;;27.93;;
44438;SDS011;30145;48.874;10.186;2023-03-03T06:08:25;50.53;;;29.03;;
44438;SDS011;30145;48.874;10.186;2023-03-03T06:10:52;49.60;;;28.53;;
44438;SDS011;30145;48.874;10.186;2023-03-03T06:13:19;45.40;;;28.13;;
44438;SDS011;30145;48.874;10.186;2023-03-03T06:15:46;47.40;;;28.73;;
44438;SDS011;30145;48.874;10.186;2023-03-03T06:18:13;49.63;;;29.53;;
44438;SDS011;30145;48.874;10.186;2023-03-03T06:20:40;46.63;;;29.00;;
44438;SDS011;30145;48.874;10.186;2023-03-03T06:23:07;47.73;;;26.87;;
44438;SDS011;30145;48.874;10.186;2023-03-03T06:25:34;50.17;;;28.97;;
44438;SDS011;30145;48.874;10.186;2023-03-03T06:28:01;47.67;;;28.77;;
44438;SDS011;30145;48.874;10.186;2023-03-03T06:30:29;49.77;;;29.40;;
44438;SDS011;30145;48.874;10.186;2023-03-03T06:32:56;51.73;;;31.07;;
44438;SDS011;30145;48.874;10.186;2023-03-03T06:35:23;49.90;;;30.37;;
44438;SDS011;30145;48.874;10.186;2023-03-03T06:37:50;52.77;;;32.70;;
44438;SDS011;30145;48.874;10.186;2023-03-03T06:40:17;52.30;;;30.87;;
44438;SDS011;30145;48.874;10.186;2023-03-03T06:42:44;51.30;;;30.40;;
44438;SDS011;30145;48.874;10.186;2023-03-03T06:45:12;50.57;;;29.23;;
44438;SDS011;30145;48.874;10.186;2023-03-03T06:47:39;51.20;;;31.93;;
44438;SDS011;30145;48.874;10.186;2023-03-03T06:50:07;52.53;;;30.03;;
44438;SDS011;30145;48.874;10.186;2023-03-03T06:52:36;48.53;;;29.83;;
44438;SDS011;30145;48.874;10.186;2023-03-03T06:55:09;60.30;;;33.57;;
44438;SDS011;30145;48.874;10.186;2023-03-03T06:57:43;53.60;;;32.60;;
44438;SDS011;30145;48.874;10.186;2023-03-03T07:02:41;57.47;;;31.73;;
44438;SDS011;30145;48.874;10.186;2023-03-03T07:05:10;54.07;;;31.07;;
44438;SDS011;30145;48.874;10.186;2023-03-03T07:07:39;49.77;;;30.47;;
44438;SDS011;30145;48.874;10.186;2023-03-03T07:10:28;49.90;;;29.20;;
44438;SDS011;30145;48.874;10.186;2023-03-03T07:12:57;48.53;;;27.63;;
44438;SDS011;30145;48.874;10.186;2023-03-03T07:15:34;48.77;;;29.40;;
44438;SDS011;30145;48.874;10.186;2023-03-03T07:18:01;54.23;;;33.00;;
44438;SDS011;30145;48.874;10.186;2023-03-03T07:20:38;52.70;;;31.20;;
44438;SDS011;30145;48.874;10.186;2023-03-03T07:23:13;48.37;;;30.47;;
44438;SDS011;30145;48.874;10.186;2023-03-03T07:25:47;58.50;;;33.10;;
44438;SDS011;30145;48.874;10.186;2023-03-03T07:30:42;51.87;;;30.40;;
44438;SDS011;30145;48.874;10.186;2023-03-03T07:33:22;48.83;;;29.87;;
44438;SDS011;30145;48.874;10.186;2023-03-03T07:36:05;45.00;;;29.57;;
44438;SDS011;30145;48.874;10.186;2023-03-03T07:38:46;45.60;;;28.30;;
44438;SDS011;30145;48.874;10.186;2023-03-03T07:41:20;45.73;;;28.73;;
44438;SDS011;30145;48.874;10.186;2023-03-03T07:43:52;42.83;;;27.40;;
44438;SDS011;30145;48.874;10.186;2023-03-03T07:46:22;43.23;;;28.47;;
44438;SDS011;30145;48.874;10.186;2023-03-03T07:48:50;42.27;;;26.87;;
44438;SDS011;30145;48.874;10.186;2023-03-03T07:53:48;48.13;;;27.57;;
44438;SDS011;30145;48.874;10.186;2023-03-03T07:58:56;55.33;;;32.63;;
44438;SDS011;30145;48.874;10.186;2023-03-03T08:04:09;50.93;;;26.80;;
44438;SDS011;30145;48.874;10.186;2023-03-03T08:06:56;51.50;;;25.93;;
44438;SDS011;30145;48.874;10.186;2023-03-03T08:14:54;45.60;;;26.90;;
44438;SDS011;30145;48.874;10.186;2023-03-03T08:17:23;51.23;;;30.30;;
44438;SDS011;30145;48.874;10.186;2023-03-03T08:19:52;44.40;;;27.20;;
44438;SDS011;30145;48.874;10.186;2023-03-03T08:22:28;47.77;;;27.70;;
44438;SDS011;30145;48.874;10.186;2023-03-03T08:24:57;47.57;;;28.20;;
44438;SDS011;30145;48.874;10.186;2023-03-03T08:27:24;47.77;;;28.67;;
44438;SDS011;30145;48.874;10.186;2023-03-03T08:29:52;49.90;;;29.57;;
44438;SDS011;30145;48.874;10.186;2023-03-03T08:32:19;48.63;;;27.97;;
44438;SDS011;30145;48.874;10.186;2023-03-03T08:34:47;47.10;;;27.77;;
44438;SDS011;30145;48.874;10.186;2023-03-03T08:37:13;48.40;;;29.37;;
44438;SDS011;30145;48.874;10.186;2023-03-03T08:39:41;45.90;;;27.30;;
44438;SDS011;30145;48.874;10.186;2023-03-03T08:42:08;46.00;;;27.77;;
44438;SDS011;30145;48.874;10.186;2023-03-03T08:44:36;40.27;;;24.10;;
44438;SDS011;30145;48.874;10.186;2023-03-03T08:47:03;40.27;;;23.43;;
44438;SDS011;30145;48.874;10.186;2023-03-03T08:49:32;35.23;;;22.93;;
44438;SDS011;30145;48.874;10.186;2023-03-03T08:51:59;41.77;;;22.93;;
44438;SDS011;30145;48.874;10.186;2023-03-03T08:54:26;31.90;;;20.43;;
44438;SDS011;30145;48.874;10.186;2023-03-03T08:56:54;30.83;;;19.07;;
44438;SDS011;30145;48.874;10.186;2023-03-03T08:59:21;30.37;;;19.67;;
44438;SDS011;30145;48.874;10.186;2023-03-03T09:01:49;29.30;;;19.67;;
44438;SDS011;30145;48.874;10.186;2023-03-03T09:04:16;33.13;;;18.67;;
44438;SDS011;30145;48.874;10.186;2023-03-03T09:06:44;29.63;;;19.37;;
44438;SDS011;30145;48.874;10.186;2023-03-03T09:09:10;30.97;;;19.53;;
44438;SDS011;30145;48.874;10.186;2023-03-03T09:11:37;28.97;;;18.67;;
44438;SDS011;30145;48.874;10.186;2023-03-03T09:14:12;28.20;;;17.83;;
44438;SDS011;30145;48.874;10.186;2023-03-03T09:33:16;29.37;;;18.60;;
44438;SDS011;30145;48.874;10.186;2023-03-03T09:35:50;32.87;;;20.43;;
44438;SDS011;30145;48.874;10.186;2023-03-03T09:43:35;28.87;;;18.87;;
44438;SDS011;30145;48.874;10.186;2023-03-03T09:54:46;37.20;;;23.30;;
44438;SDS011;30145;48.874;10.186;2023-03-03T09:57:56;29.50;;;20.43;;
44438;SDS011;30145;48.874;10.186;2023-03-03T10:05:50;32.50;;;20.00;;
44438;SDS011;30145;48.874;10.186;2023-03-03T10:22:12;28.87;;;17.73;;
44438;SDS011;30145;48.874;10.186;2023-03-03T10:50:57;23.00;;;15.87;;
44438;SDS011;30145;48.874;10.186;2023-03-03T10:53:31;26.50;;;16.03;;
44438;SDS011;30145;48.874;10.186;2023-03-03T10:59:27;25.90;;;16.37;;
44438;SDS011;30145;48.874;10.186;2023-03-03T11:07:25;28.07;;;17.87;;
44438;SDS011;30145;48.874;10.186;2023-03-03T11:36:29;29.47;;;20.07;;
44438;SDS011;30145;48.874;10.186;2023-03-03T11:39:07;25.90;;;18.57;;
44438;SDS011;30145;48.874;10.186;2023-03-03T11:46:49;25.57;;;17.23;;
44438;SDS011;30145;48.874;10.186;2023-03-03T11:49:21;29.20;;;18.90;;
44438;SDS011;30145;48.874;10.186;2023-03-03T11:51:59;29.57;;;19.33;;
44438;SDS011;30145;48.874;10.186;2023-03-03T11:54:34;27.93;;;18.70;;
44438;SDS011;30145;48.874;10.186;2023-03-03T12:00:04;25.30;;;18.60;;
44438;SDS011;30145;48.874;10.186;2023-03-03T12:08:47;28.03;;;18.50;;
44438;SDS011;30145;48.874;10.186;2023-03-03T12:17:11;29.20;;;18.97;;
44438;SDS011;30145;48.874;10.186;2023-03-03T12:20:08;30.17;;;19.37;;
44438;SDS011;30145;48.874;10.186;2023-03-03T12:25:44;26.67;;;18.47;;
44438;SDS011;30145;48.874;10.186;2023-03-03T12:28:20;68.88;;;20.73;;
44438;SDS011;30145;48.874;10.186;2023-03-03T12:31:04;27.80;;;17.83;;
44438;SDS011;30145;48.874;10.186;2023-03-03T12:33:55;27.13;;;18.63;;
44438;SDS011;30145;48.874;10.186;2023-03-03T12:36:35;26.47;;;17.63;;
44438;SDS011;30145;48.874;10.186;2023-03-03T12:39:21;24.57;;;17.43;;
44438;SDS011;30145;48.874;10.186;2023-03-03T12:44:40;28.00;;;18.07;;
44438;SDS011;30145;48.874;10.186;2023-03-03T12:55:31;27.90;;;18.97;;
44438;SDS011;30145;48.874;10.186;2023-03-03T13:00:59;28.73;;;17.83;;
44438;SDS011;30145;48.874;10.186;2023-03-03T13:09:01;27.97;;;19.30;;
44438;SDS011;30145;48.874;10.186;2023-03-03T13:11:41;30.43;;;18.97;;
44438;SDS011;30145;48.874;10.186;2023-03-03T13:17:35;28.27;;;19.33;;
44438;SDS011;30145;48.874;10.186;2023-03-03T13:23:03;29.60;;;18.97;;
44438;SDS011;30145;48.874;10.186;2023-03-03T13:25:53;27.53;;;19.23;;
44438;SDS011;30145;48.874;10.186;2023-03-03T13:28:26;28.07;;;19.73;;
44438;SDS011;30145;48.874;10.186;2023-03-03T13:31:21;27.50;;;18.97;;
44438;SDS011;30145;48.874;10.186;2023-03-03T13:33:52;26.70;;;18.33;;
44438;SDS011;30145;48.874;10.186;2023-03-03T13:36:24;31.73;;;19.97;;
44438;SDS011;30145;48.874;10.186;2023-03-03T13:38:58;34.00;;;21.40;;
44438;SDS011;30145;48.874;10.186;2023-03-03T13:44:28;27.80;;;18.43;;
44438;SDS011;30145;48.874;10.186;2023-03-03T13:47:23;29.17;;;19.67;;
44438;SDS011;30145;48.874;10.186;2023-03-03T13:56:09;26.13;;;17.50;;
44438;SDS011;30145;48.874;10.186;2023-03-03T14:01:47;29.90;;;19.63;;
44438;SDS011;30145;48.874;10.186;2023-03-03T14:09:58;29.00;;;19.57;;
44438;SDS011;30145;48.874;10.186;2023-03-03T14:20:53;30.50;;;19.93;;
44438;SDS011;30145;48.874;10.186;2023-03-03T14:23:24;30.53;;;19.77;;
44438;SDS011;30145;48.874;10.186;2023-03-03T14:28:37;26.93;;;19.13;;
44438;SDS011;30145;48.874;10.186;2023-03-03T14:31:22;25.57;;;17.13;;
44438;SDS011;30145;48.874;10.186;2023-03-03T14:36:26;27.13;;;17.77;;
44438;SDS011;30145;48.874;10.186;2023-03-03T14:38:55;27.97;;;17.47;;
44438;SDS011;30145;48.874;10.186;2023-03-03T14:41:38;30.60;;;20.63;;
44438;SDS011;30145;48.874;10.186;2023-03-03T14:47:05;40.63;;;25.37;;
44438;SDS011;30145;48.874;10.186;2023-03-03T14:49:38;29.47;;;21.10;;
44438;SDS011;30145;48.874;10.186;2023-03-03T14:54:42;26.37;;;18.50;;
44438;SDS011;30145;48.874;10.186;2023-03-03T14:57:18;27.30;;;18.20;;
44438;SDS011;30145;48.874;10.186;2023-03-03T15:05:51;31.30;;;19.40;;
44438;SDS011;30145;48.874;10.186;2023-03-03T15:08:34;30.27;;;19.00;;
44438;SDS011;30145;48.874;10.186;2023-03-03T15:11:12;29.97;;;18.53;;
44438;SDS011;30145;48.874;10.186;2023-03-03T15:13:42;29.13;;;19.03;;
44438;SDS011;30145;48.874;10.186;2023-03-03T15:16:17;31.70;;;20.73;;
44438;SDS011;30145;48.874;10.186;2023-03-03T15:21:50;25.67;;;18.43;;
44438;SDS011;30145;48.874;10.186;2023-03-03T15:24:35;25.10;;;17.93;;
44438;SDS011;30145;48.874;10.186;2023-03-03T15:27:24;25.30;;;17.93;;
44438;SDS011;30145;48.874;10.186;2023-03-03T15:32:38;28.03;;;18.07;;
44438;SDS011;30145;48.874;10.186;2023-03-03T15:40:26;23.47;;;16.63;;
44438;SDS011;30145;48.874;10.186;2023-03-03T15:43:05;26.43;;;18.43;;
44438;SDS011;30145;48.874;10.186;2023-03-03T15:49:04;25.93;;;16.77;;
44438;SDS011;30145;48.874;10.186;2023-03-03T15:51:50;32.73;;;19.47;;
44438;SDS011;30145;48.874;10.186;2023-03-03T15:54:53;31.30;;;19.43;;
44438;SDS011;30145;48.874;10.186;2023-03-03T16:00:35;36.37;;;22.10;;
44438;SDS011;30145;48.874;10.186;2023-03-03T16:03:16;34.17;;;21.23;;
44438;SDS011;30145;48.874;10.186;2023-03-03T16:05:53;29.53;;;20.57;;
44438;SDS011;30145;48.874;10.186;2023-03-03T16:08:23;30.27;;;21.03;;
44438;SDS011;30145;48.874;10.186;2023-03-03T16:13:34;34.33;;;21.47;;
44438;SDS011;30145;48.874;10.186;2023-03-03T16:19:10;28.10;;;19.70;;
44438;SDS011;30145;48.874;10.186;2023-03-03T16:33:12;31.17;;;20.93;;
44438;SDS011;30145;48.874;10.186;2023-03-03T16:35:50;37.90;;;24.27;;
44438;SDS011;30145;48.874;10.186;2023-03-03T16:38:28;32.90;;;20.93;;
44438;SDS011;30145;48.874;10.186;2023-03-03T16:40:57;38.13;;;23.07;;
44438;SDS011;30145;48.874;10.186;2023-03-03T16:49:00;37.87;;;25.13;;
44438;SDS011;30145;48.874;10.186;2023-03-03T16:51:39;39.50;;;27.13;;
44438;SDS011;30145;48.874;10.186;2023-03-03T17:08:15;53.10;;;36.33;;
44438;SDS011;30145;48.874;10.186;2023-03-03T17:10:51;48.03;;;33.27;;
44438;SDS011;30145;48.874;10.186;2023-03-03T17:19:19;39.53;;;24.40;;
44438;SDS011;30145;48.874;10.186;2023-03-03T17:24:47;36.73;;;23.43;;
44438;SDS011;30145;48.874;10.186;2023-03-03T17:30:54;34.97;;;22.03;;
44438;SDS011;30145;48.874;10.186;2023-03-03T17:41:35;42.43;;;25.43;;
44438;SDS011;30145;48.874;10.186;2023-03-03T17:47:07;35.47;;;22.53;;
44438;SDS011;30145;48.874;10.186;2023-03-03T17:49:53;36.00;;;22.90;;
44438;SDS011;30145;48.874;10.186;2023-03-03T18:21:06;41.53;;;26.20;;
44438;SDS011;30145;48.874;10.186;2023-03-03T18:23:36;36.23;;;22.70;;
44438;SDS011;30145;48.874;10.186;2023-03-03T18:36:59;40.03;;;24.00;;
44438;SDS011;30145;48.874;10.186;2023-03-03T18:39:38;39.97;;;23.40;;
44438;SDS011;30145;48.874;10.186;2023-03-03T18:42:10;32.13;;;21.30;;
44438;SDS011;30145;48.874;10.186;2023-03-03T18:44:37;36.43;;;22.47;;
44438;SDS011;30145;48.874;10.186;2023-03-03T18:47:05;33.87;;;21.73;;
44438;SDS011;30145;48.874;10.186;2023-03-03T18:52:32;36.77;;;23.10;;
44438;SDS011;30145;48.874;10.186;2023-03-03T18:57:28;35.30;;;21.80;;
44438;SDS011;30145;48.874;10.186;2023-03-03T19:00:43;37.03;;;20.30;;
44438;SDS011;30145;48.874;10.186;2023-03-03T19:02:51;31.43;;;20.93;;
44438;SDS011;30145;48.874;10.186;2023-03-03T19:05:27;31.00;;;20.80;;
44438;SDS011;30145;48.874;10.186;2023-03-03T19:10:46;34.97;;;20.47;;
44438;SDS011;30145;48.874;10.186;2023-03-03T19:16:04;32.70;;;20.07;;
44438;SDS011;30145;48.874;10.186;2023-03-03T19:18:33;37.97;;;22.63;;
44438;SDS011;30145;48.874;10.186;2023-03-03T19:21:03;30.30;;;19.70;;
44438;SDS011;30145;48.874;10.186;2023-03-03T19:34:56;36.40;;;21.63;;
44438;SDS011;30145;48.874;10.186;2023-03-03T19:40:33;28.80;;;17.87;;
44438;SDS011;30145;48.874;10.186;2023-03-03T19:43:21;33.30;;;17.70;;
44438;SDS011;30145;48.874;10.186;2023-03-03T19:46:10;29.60;;;17.30;;
44438;SDS011;30145;48.874;10.186;2023-03-03T19:51:46;28.87;;;17.30;;
44438;SDS011;30145;48.874;10.186;2023-03-03T19:54:23;29.80;;;17.00;;
44438;SDS011;30145;48.874;10.186;2023-03-03T19:57:31;30.63;;;16.67;;
44438;SDS011;30145;48.874;10.186;2023-03-03T20:00:20;30.33;;;16.77;;
44438;SDS011;30145;48.874;10.186;2023-03-03T20:03:31;25.23;;;15.87;;
44438;SDS011;30145;48.874;10.186;2023-03-03T20:06:30;26.80;;;15.47;;
44438;SDS011;30145;48.874;10.186;2023-03-03T20:12:56;27.93;;;15.50;;
44438;SDS011;30145;48.874;10.186;2023-03-03T20:15:15;25.33;;;16.03;;
44438;SDS011;30145;48.874;10.186;2023-03-03T20:18:02;24.43;;;15.33;;
44438;SDS011;30145;48.874;10.186;2023-03-03T20:21:10;23.27;;;14.87;;
44438;SDS011;30145;48.874;10.186;2023-03-03T20:43:28;23.50;;;13.83;;
44438;SDS011;30145;48.874;10.186;2023-03-03T20:48:42;68.17;;;29.13;;
44438;SDS011;30145;48.874;10.186;2023-03-03T21:04:49;20.73;;;12.43;;
44438;SDS011;30145;48.874;10.186;2023-03-03T21:07:35;22.40;;;12.30;;
44438;SDS011;30145;48.874;10.186;2023-03-03T21:10:10;18.83;;;11.87;;
44438;SDS011;30145;48.874;10.186;2023-03-03T21:12:41;31.20;;;14.80;;
44438;SDS011;30145;48.874;10.186;2023-03-03T21:17:53;29.57;;;14.77;;
44438;SDS011;30145;48.874;10.186;2023-03-03T21:22:59;22.17;;;13.07;;
44438;SDS011;30145;48.874;10.186;2023-03-03T21:31:11;47.57;;;21.10;;
44438;SDS011;30145;48.874;10.186;2023-03-03T21:33:53;23.77;;;12.50;;
44438;SDS011;30145;48.874;10.186;2023-03-03T21:36:45;21.70;;;11.93;;
44438;SDS011;30145;48.874;10.186;2023-03-03T21:39:21;18.77;;;11.47;;
44438;SDS011;30145;48.874;10.186;2023-03-03T21:42:16;21.97;;;12.17;;
44438;SDS011;30145;48.874;10.186;2023-03-03T21:44:53;18.10;;;11.97;;
44438;SDS011;30145;48.874;10.186;2023-03-03T21:47:26;23.43;;;12.63;;
44438;SDS011;30145;48.874;10.186;2023-03-03T21:49:54;42.37;;;18.97;;
44438;SDS011;30145;48.874;10.186;2023-03-03T21:52:23;40.87;;;20.47;;
44438;SDS011;30145;48.874;10.186;2023-03-03T21:54:51;23.33;;;13.20;;